Time;durP1;ratioP1;P1;durP2;ratioP2;P2;SDS_P1;SDS_P2;PMS_P1;PMS_P2;Temp;Humidity;BMP_temperature;BMP_pressure;BME280_temperature;BME280_humidity;BME280_pressure;Samples;Min_cycle;Max_cycle;Signal;HPM_P1;HPM_P2
2020/12/30 00:00:38;;;;;;;7.57;5.40;;;4.40;84.30;;;;;;5012480;28;20567;-69
2020/12/30 00:03:04;;;;;;;10.77;5.90;;;4.40;84.60;;;;;;5029864;28;20507;-69
2020/12/30 00:05:29;;;;;;;9.93;6.17;;;4.40;84.70;;;;;;5030146;28;20170;-70
2020/12/30 00:07:55;;;;;;;7.77;5.10;;;4.40;84.90;;;;;;5030057;28;20548;-70
2020/12/30 00:10:22;;;;;;;7.03;4.97;;;4.40;85.00;;;;;;5029557;28;20232;-71
2020/12/30 00:12:48;;;;;;;9.33;5.80;;;4.40;85.10;;;;;;5029464;28;20189;-71
2020/12/30 00:15:15;;;;;;;9.40;5.33;;;4.40;85.30;;;;;;5028317;28;20440;-71
2020/12/30 00:17:42;;;;;;;8.87;5.97;;;4.40;85.40;;;;;;5029839;28;20408;-76
2020/12/30 00:20:10;;;;;;;7.20;5.07;;;4.40;85.60;;;;;;5027948;28;20857;-71
2020/12/30 00:22:36;;;;;;;8.07;5.47;;;4.40;85.60;;;;;;5026920;28;20464;-70
2020/12/30 00:25:03;;;;;;;5.90;4.67;;;4.40;85.60;;;;;;5029756;28;20401;-71
2020/12/30 00:27:29;;;;;;;9.80;5.53;;;4.40;85.80;;;;;;5028147;28;20413;-70
2020/12/30 00:29:55;;;;;;;8.53;5.43;;;4.40;85.80;;;;;;5029719;28;21018;-68
2020/12/30 00:32:20;;;;;;;16.17;6.73;;;4.40;85.90;;;;;;5029501;28;20190;-69
2020/12/30 00:34:46;;;;;;;9.20;5.93;;;4.40;85.90;;;;;;5030166;28;20162;-75
2020/12/30 00:37:12;;;;;;;8.43;5.73;;;4.40;86.10;;;;;;5028551;28;20608;-72
2020/12/30 00:39:38;;;;;;;12.70;6.23;;;4.40;86.20;;;;;;5029790;28;20863;-70
2020/12/30 00:42:04;;;;;;;9.63;6.10;;;4.40;86.20;;;;;;5029644;28;20417;-71
2020/12/30 00:44:32;;;;;;;16.20;7.10;;;4.40;86.30;;;;;;5028138;28;20441;-72
2020/12/30 00:46:58;;;;;;;11.10;6.23;;;4.40;86.50;;;;;;5030211;28;20459;-71
2020/12/30 00:49:25;;;;;;;8.73;5.50;;;4.40;86.70;;;;;;5029699;28;20973;-69
2020/12/30 00:51:56;;;;;;;9.30;5.87;;;4.40;86.60;;;;;;5027971;28;20758;-70
2020/12/30 00:54:26;;;;;;;11.37;5.70;;;4.40;86.60;;;;;;5029110;28;20408;-70
2020/12/30 00:56:52;;;;;;;18.37;5.87;;;4.50;86.70;;;;;;5028100;28;20409;-70
2020/12/30 00:59:19;;;;;;;13.10;5.87;;;4.50;86.80;;;;;;5027694;28;20236;-68
2020/12/30 01:01:52;;;;;;;7.97;5.97;;;4.50;86.70;;;;;;5030159;28;20512;-70
2020/12/30 01:04:24;;;;;;;11.00;5.30;;;4.50;86.80;;;;;;5030962;28;20409;-70
2020/12/30 01:06:51;;;;;;;8.97;5.33;;;4.50;86.80;;;;;;5029542;28;20933;-70
2020/12/30 01:09:17;;;;;;;12.60;6.70;;;4.50;86.90;;;;;;5029523;28;20202;-71
2020/12/30 01:11:43;;;;;;;13.60;6.97;;;4.50;87.10;;;;;;5028847;28;21044;-70
2020/12/30 01:14:09;;;;;;;9.53;5.80;;;4.50;87.10;;;;;;5028351;28;20405;-69
2020/12/30 01:16:35;;;;;;;11.90;6.00;;;4.50;87.10;;;;;;5028739;28;20527;-70
2020/12/30 01:19:01;;;;;;;10.20;6.00;;;4.50;87.20;;;;;;5027378;28;20456;-70
2020/12/30 01:21:26;;;;;;;9.97;5.70;;;4.50;87.20;;;;;;5027712;28;20163;-69
2020/12/30 01:23:52;;;;;;;8.53;5.13;;;4.40;87.10;;;;;;5030525;28;20198;-69
2020/12/30 01:26:17;;;;;;;7.43;5.60;;;4.50;87.30;;;;;;5030890;28;20175;-69
2020/12/30 01:28:43;;;;;;;8.50;6.27;;;4.50;87.30;;;;;;5031205;28;20189;-68
2020/12/30 01:31:09;;;;;;;6.93;5.03;;;4.50;87.30;;;;;;5032208;28;20163;-69
2020/12/30 01:33:34;;;;;;;8.27;5.90;;;4.50;87.10;;;;;;5031788;28;20186;-69
2020/12/30 01:36:00;;;;;;;7.47;5.60;;;4.50;86.90;;;;;;5032261;28;20162;-70
2020/12/30 01:38:26;;;;;;;11.00;5.53;;;4.50;86.80;;;;;;5032101;28;20186;-69
2020/12/30 01:40:55;;;;;;;10.30;5.13;;;4.50;86.60;;;;;;5032684;28;20216;-70
2020/12/30 01:43:21;;;;;;;9.37;5.53;;;4.50;86.50;;;;;;5030011;28;20186;-70
2020/12/30 01:45:49;;;;;;;9.53;5.10;;;4.50;86.30;;;;;;5032057;28;20901;-68
2020/12/30 01:48:19;;;;;;;7.40;5.90;;;4.50;86.10;;;;;;5030907;28;20428;-70
2020/12/30 01:50:45;;;;;;;9.20;6.23;;;4.50;86.20;;;;;;5031940;28;20445;-70
2020/12/30 01:53:12;;;;;;;10.40;6.30;;;4.50;86.10;;;;;;5031611;28;20815;-67
2020/12/30 01:55:42;;;;;;;8.33;5.73;;;4.50;86.20;;;;;;5030676;28;20409;-68
2020/12/30 01:58:08;;;;;;;13.07;7.03;;;4.50;86.30;;;;;;5031803;28;20425;-68
2020/12/30 02:00:35;;;;;;;10.27;5.60;;;4.60;86.40;;;;;;5031821;28;20516;-69
2020/12/30 02:03:03;;;;;;;9.10;5.60;;;4.60;86.40;;;;;;5031509;28;20451;-68
2020/12/30 02:05:34;;;;;;;12.37;7.23;;;4.60;86.30;;;;;;5030232;28;20486;-70
2020/12/30 02:08:01;;;;;;;14.60;6.50;;;4.60;86.10;;;;;;5030588;28;20509;-70
2020/12/30 02:10:27;;;;;;;12.40;7.70;;;4.60;86.20;;;;;;5031654;28;20449;-69
2020/12/30 02:12:55;;;;;;;11.67;6.77;;;4.50;86.20;;;;;;5030359;28;20954;-68
2020/12/30 02:38:04;;;;;;;12.23;7.30;;;4.50;87.60;;;;;;5029689;28;20957;-69
2020/12/30 02:40:29;;;;;;;12.47;7.80;;;4.50;87.60;;;;;;5029796;28;20433;-69
2020/12/30 02:42:55;;;;;;;10.30;6.90;;;4.50;87.70;;;;;;5029954;28;20183;-69
2020/12/30 02:45:21;;;;;;;14.67;8.97;;;4.50;87.60;;;;;;5030696;28;20171;-69
2020/12/30 02:47:47;;;;;;;8.97;5.93;;;4.50;87.70;;;;;;5029441;28;20714;-67
2020/12/30 02:50:12;;;;;;;9.80;6.10;;;4.50;87.60;;;;;;5030285;28;20457;-68
2020/12/30 02:52:38;;;;;;;10.60;5.83;;;4.50;87.40;;;;;;5028623;28;20213;-69
2020/12/30 02:55:04;;;;;;;7.93;5.87;;;4.50;87.30;;;;;;5030471;28;20184;-68
2020/12/30 02:57:29;;;;;;;7.43;5.50;;;4.50;87.30;;;;;;5030646;28;20170;-67
2020/12/30 02:59:58;;;;;;;9.47;6.33;;;4.50;87.20;;;;;;5029807;28;20175;-70
2020/12/30 03:02:26;;;;;;;10.50;5.60;;;4.50;87.20;;;;;;5029974;28;20260;-69
2020/12/30 03:04:53;;;;;;;10.30;5.73;;;4.50;87.30;;;;;;5030329;28;20405;-68
2020/12/30 03:07:19;;;;;;;11.17;5.83;;;4.50;87.20;;;;;;5030159;28;20747;-68
2020/12/30 03:09:46;;;;;;;10.17;5.70;;;4.50;87.20;;;;;;5011754;28;20535;-69
2020/12/30 03:12:11;;;;;;;9.07;6.40;;;4.50;87.10;;;;;;5030021;28;20711;-68
2020/12/30 03:14:37;;;;;;;8.90;6.40;;;4.50;87.90;;;;;;5029634;28;20483;-67
2020/12/30 03:17:03;;;;;;;8.70;6.10;;;4.50;87.10;;;;;;5030334;28;20535;-67
2020/12/30 03:19:28;;;;;;;9.13;5.20;;;4.50;87.10;;;;;;5029980;28;20181;-69
2020/12/30 03:21:56;;;;;;;11.10;5.60;;;4.50;87.00;;;;;;5029980;28;20241;-68
2020/12/30 03:24:22;;;;;;;8.73;6.33;;;4.50;87.00;;;;;;5029510;28;20170;-67
2020/12/30 03:26:49;;;;;;;9.70;6.47;;;4.50;87.10;;;;;;5029623;28;20489;-69
2020/12/30 03:29:14;;;;;;;9.23;6.90;;;4.50;87.20;;;;;;5028209;28;20522;-69
2020/12/30 03:31:40;;;;;;;12.20;7.10;;;4.50;87.20;;;;;;5028323;28;20420;-68
2020/12/30 03:34:08;;;;;;;12.20;7.73;;;4.50;87.40;;;;;;5029901;28;20449;-69
2020/12/30 03:36:34;;;;;;;12.13;7.00;;;4.50;87.60;;;;;;5029776;28;20213;-69
2020/12/30 03:39:00;;;;;;;12.13;7.60;;;4.50;87.70;;;;;;5029880;28;20934;-70
2020/12/30 03:41:25;;;;;;;13.47;6.93;;;4.50;87.80;;;;;;5029601;28;20409;-69
2020/12/30 03:43:51;;;;;;;11.70;6.53;;;4.50;87.90;;;;;;5028932;28;20189;-69
2020/12/30 03:46:17;;;;;;;11.53;7.53;;;4.50;87.90;;;;;;5027384;28;20197;-69
2020/12/30 03:48:42;;;;;;;10.10;6.13;;;4.50;88.10;;;;;;5029267;28;20682;-68
2020/12/30 03:51:08;;;;;;;10.37;5.67;;;4.50;88.20;;;;;;5029175;28;20190;-67
2020/12/30 03:53:33;;;;;;;9.10;5.83;;;4.50;88.10;;;;;;5028183;28;20238;-70
2020/12/30 03:55:59;;;;;;;12.60;6.30;;;4.50;88.10;;;;;;5027903;28;20257;-70
2020/12/30 03:58:25;;;;;;;9.67;5.97;;;4.50;88.10;;;;;;5029058;28;20269;-69
2020/12/30 04:00:50;;;;;;;8.60;6.20;;;4.50;88.20;;;;;;5027985;28;20182;-68
2020/12/30 04:03:16;;;;;;;9.60;7.03;;;4.40;88.10;;;;;;5028831;28;20291;-69
2020/12/30 04:05:42;;;;;;;14.13;6.73;;;4.40;88.10;;;;;;5029191;28;20519;-70
2020/12/30 04:08:07;;;;;;;7.83;4.97;;;4.40;88.10;;;;;;5029315;28;20210;-69
2020/12/30 04:10:33;;;;;;;10.43;5.93;;;4.40;88.30;;;;;;5029153;28;20214;-68
2020/12/30 04:12:59;;;;;;;8.00;6.27;;;4.40;88.30;;;;;;5028896;28;20196;-69
2020/12/30 04:15:24;;;;;;;9.47;5.20;;;4.40;88.40;;;;;;5029147;28;20170;-67
2020/12/30 04:17:50;;;;;;;12.00;5.80;;;4.30;88.40;;;;;;5028191;28;20162;-68
2020/12/30 04:20:16;;;;;;;10.00;5.50;;;4.30;88.50;;;;;;5029279;28;20189;-68
2020/12/30 04:22:41;;;;;;;10.47;6.90;;;4.30;88.60;;;;;;5029173;28;20641;-68
2020/12/30 04:25:07;;;;;;;11.40;5.20;;;4.30;88.50;;;;;;5029218;28;20266;-67
2020/12/30 04:27:32;;;;;;;14.80;5.30;;;4.30;88.60;;;;;;5029054;28;20223;-67
2020/12/30 04:29:58;;;;;;;10.00;5.90;;;4.30;88.50;;;;;;5028932;28;20190;-68
2020/12/30 04:32:24;;;;;;;9.27;5.77;;;4.30;88.50;;;;;;5028551;28;20261;-70
2020/12/30 04:34:49;;;;;;;8.43;6.07;;;4.30;88.60;;;;;;5029004;28;20228;-68
2020/12/30 04:37:15;;;;;;;10.67;6.47;;;4.20;88.50;;;;;;5028747;28;20240;-67
2020/12/30 04:39:41;;;;;;;12.13;6.27;;;4.20;88.50;;;;;;5028919;28;20623;-68
2020/12/30 04:42:08;;;;;;;11.10;6.10;;;4.10;88.60;;;;;;5028586;28;20552;-68
2020/12/30 04:44:38;;;;;;;9.93;7.40;;;3.90;88.80;;;;;;5028743;28;20412;-69
2020/12/30 04:47:03;;;;;;;8.63;5.83;;;3.80;89.30;;;;;;5028903;28;20413;-69
2020/12/30 04:49:30;;;;;;;8.80;6.27;;;3.70;89.70;;;;;;5028878;28;20790;-69
2020/12/30 04:51:56;;;;;;;8.27;5.20;;;3.60;90.00;;;;;;5029207;28;20505;-69
2020/12/30 04:54:23;;;;;;;10.53;6.07;;;3.50;90.20;;;;;;5028579;28;20432;-68
2020/12/30 04:56:59;;;;;;;10.27;5.93;;;3.40;90.30;;;;;;5027306;28;20416;-70
2020/12/30 04:59:32;;;;;;;8.97;5.33;;;3.40;90.50;;;;;;5031717;28;20416;-68
2020/12/30 05:02:06;;;;;;;8.73;6.23;;;3.40;90.60;;;;;;5032755;28;20425;-68
2020/12/30 05:04:34;;;;;;;10.53;4.93;;;3.30;90.60;;;;;;5030741;28;20582;-68
2020/12/30 05:07:05;;;;;;;9.57;5.90;;;3.30;90.70;;;;;;5030924;28;21028;-67
2020/12/30 05:09:33;;;;;;;12.17;6.33;;;3.40;90.80;;;;;;5032191;28;20804;-68
2020/12/30 05:11:59;;;;;;;9.13;5.60;;;3.40;90.80;;;;;;5032286;28;20524;-68
2020/12/30 05:14:25;;;;;;;9.73;5.57;;;3.40;90.70;;;;;;5032170;28;20413;-66
2020/12/30 05:16:50;;;;;;;9.10;5.97;;;3.50;90.70;;;;;;5032298;28;20162;-69
2020/12/30 05:19:16;;;;;;;9.27;5.77;;;3.50;90.50;;;;;;5032383;28;20166;-68
2020/12/30 05:21:41;;;;;;;15.53;5.53;;;3.50;90.50;;;;;;5031983;28;20171;-68
2020/12/30 05:24:09;;;;;;;7.50;5.20;;;3.60;90.40;;;;;;5030322;28;20170;-69
2020/12/30 05:26:36;;;;;;;11.17;5.43;;;3.60;90.60;;;;;;5031957;28;20174;-68
2020/12/30 05:29:04;;;;;;;8.03;5.53;;;3.70;90.20;;;;;;5032020;28;20497;-71
2020/12/30 05:31:29;;;;;;;7.67;5.43;;;3.70;90.10;;;;;;5031799;28;20855;-68
2020/12/30 05:33:55;;;;;;;8.20;4.60;;;3.70;90.00;;;;;;5031767;28;20583;-69
2020/12/30 05:36:25;;;;;;;9.90;5.80;;;3.80;90.00;;;;;;5030201;28;20619;-68
2020/12/30 05:38:52;;;;;;;12.10;6.30;;;3.80;89.80;;;;;;5031757;28;20265;-68
2020/12/30 05:41:19;;;;;;;10.57;6.10;;;3.90;89.60;;;;;;5031755;28;20440;-69
2020/12/30 05:43:45;;;;;;;8.50;4.90;;;3.90;89.10;;;;;;5031048;28;20429;-69
2020/12/30 05:46:23;;;;;;;12.47;6.20;;;3.90;89.00;;;;;;5031445;28;20428;-69
2020/12/30 05:48:51;;;;;;;13.00;5.50;;;3.90;88.70;;;;;;5031161;28;20166;-70
2020/12/30 05:51:25;;;;;;;10.33;6.70;;;3.90;88.50;;;;;;5029867;28;20425;-69
2020/12/30 05:54:11;;;;;;;9.73;5.60;;;3.90;88.30;;;;;;5031247;28;20873;-68
2020/12/30 05:56:38;;;;;;;7.97;5.70;;;3.90;88.30;;;;;;5031292;28;20409;-68
2020/12/30 05:59:04;;;;;;;8.83;5.63;;;3.80;87.90;;;;;;5030994;28;20556;-69
2020/12/30 06:01:31;;;;;;;8.83;5.50;;;3.80;87.90;;;;;;5031752;28;20420;-67
2020/12/30 06:04:18;;;;;;;8.80;5.73;;;3.70;87.90;;;;;;5031337;28;20421;-68
2020/12/30 06:06:45;;;;;;;8.00;6.03;;;3.60;88.00;;;;;;5030978;28;20436;-70
2020/12/30 06:09:16;;;;;;;14.57;6.20;;;3.60;88.20;;;;;;5030677;28;20433;-69
2020/12/30 06:11:52;;;;;;;13.77;6.80;;;3.50;88.30;;;;;;5031552;28;20436;-68
2020/12/30 06:14:19;;;;;;;9.43;6.83;;;3.40;88.60;;;;;;5031064;28;20566;-69
2020/12/30 06:16:45;;;;;;;12.07;6.40;;;3.40;88.80;;;;;;5030330;28;20522;-69
2020/12/30 06:19:12;;;;;;;12.03;6.70;;;3.30;88.90;;;;;;5031573;28;20406;-67
2020/12/30 06:21:46;;;;;;;10.63;6.37;;;3.20;89.00;;;;;;5029345;28;20236;-69
2020/12/30 06:24:14;;;;;;;12.73;6.87;;;3.20;89.30;;;;;;5030472;28;20405;-68
2020/12/30 06:26:40;;;;;;;11.50;6.83;;;3.10;89.40;;;;;;5030833;28;20436;-68
2020/12/30 06:29:16;;;;;;;14.40;7.43;;;3.10;89.60;;;;;;5029382;28;20934;-69
2020/12/30 06:31:43;;;;;;;16.43;7.80;;;3.00;89.50;;;;;;5030660;28;20409;-68
2020/12/30 06:34:09;;;;;;;14.93;8.57;;;3.00;89.90;;;;;;5030510;28;20393;-68
2020/12/30 06:36:35;;;;;;;17.23;8.50;;;2.90;90.00;;;;;;5030882;28;20820;-70
2020/12/30 06:39:18;;;;;;;15.60;8.87;;;2.90;90.10;;;;;;5031075;28;20416;-68
2020/12/30 06:42:01;;;;;;;14.20;8.83;;;2.90;90.10;;;;;;5030573;28;20211;-70
2020/12/30 06:44:43;;;;;;;18.40;8.30;;;2.90;90.30;;;;;;5030495;28;20417;-68
2020/12/30 06:47:14;;;;;;;10.40;7.40;;;2.80;90.30;;;;;;5030856;28;20920;-68
2020/12/30 06:49:40;;;;;;;14.83;8.00;;;2.80;90.30;;;;;;5030673;28;20456;-69
2020/12/30 06:52:25;;;;;;;16.60;8.63;;;2.80;90.40;;;;;;5030485;28;20421;-69
2020/12/30 06:54:51;;;;;;;17.20;9.17;;;2.80;90.50;;;;;;5030309;28;20163;-68
2020/12/30 06:57:39;;;;;;;13.60;8.23;;;2.80;90.50;;;;;;5029994;28;20929;-69
2020/12/30 07:00:35;;;;;;;14.07;7.63;;;2.90;90.50;;;;;;5030257;28;20513;-70
2020/12/30 07:03:17;;;;;;;13.70;8.77;;;2.90;90.60;;;;;;5021269;28;21034;-69
2020/12/30 07:05:44;;;;;;;14.57;7.90;;;3.00;90.60;;;;;;5030301;28;20482;-69
2020/12/30 07:08:10;;;;;;;18.43;7.90;;;3.00;90.50;;;;;;5028778;28;20471;-67
2020/12/30 07:10:43;;;;;;;17.37;9.17;;;3.10;90.40;;;;;;5030056;28;20452;-68
2020/12/30 07:13:10;;;;;;;14.90;8.80;;;3.10;90.20;;;;;;5029603;28;20425;-69
2020/12/30 07:15:35;;;;;;;18.67;9.07;;;3.10;90.20;;;;;;5028627;28;20405;-69
2020/12/30 07:18:05;;;;;;;16.23;9.60;;;3.10;90.20;;;;;;5029807;28;20753;-68
2020/12/30 07:20:39;;;;;;;16.40;9.57;;;3.10;90.20;;;;;;5028915;28;20181;-68
2020/12/30 07:23:16;;;;;;;20.23;10.33;;;3.20;90.20;;;;;;5029699;28;20527;-69
2020/12/30 07:25:50;;;;;;;18.23;10.03;;;3.30;90.10;;;;;;5030003;28;20571;-68
2020/12/30 07:28:16;;;;;;;23.70;11.13;;;3.40;90.10;;;;;;5030017;28;20417;-68
2020/12/30 07:30:42;;;;;;;19.63;9.77;;;3.40;89.70;;;;;;5029134;28;20473;-67
2020/12/30 07:33:08;;;;;;;20.23;10.70;;;3.50;89.40;;;;;;5029287;28;20424;-69
2020/12/30 07:35:33;;;;;;;19.30;10.03;;;3.60;89.30;;;;;;5029811;28;20181;-69
2020/12/30 07:38:01;;;;;;;18.67;9.07;;;3.60;89.00;;;;;;5029734;28;20409;-69
2020/12/30 07:40:26;;;;;;;16.50;8.30;;;3.60;88.80;;;;;;5029774;28;20376;-69
2020/12/30 07:42:56;;;;;;;23.33;9.90;;;3.70;88.50;;;;;;5027761;28;20508;-68
2020/12/30 07:45:22;;;;;;;20.60;9.40;;;3.70;88.20;;;;;;5029245;28;20261;-66
2020/12/30 07:47:48;;;;;;;15.87;9.00;;;3.80;88.20;;;;;;5028095;28;20796;-68
2020/12/30 07:50:13;;;;;;;20.60;10.63;;;3.80;87.90;;;;;;5029371;28;20190;-68
2020/12/30 07:52:39;;;;;;;18.27;10.30;;;3.80;87.70;;;;;;5029363;28;20184;-69
2020/12/30 07:55:05;;;;;;;18.90;11.47;;;3.80;87.50;;;;;;5029139;28;20208;-69
2020/12/30 07:57:31;;;;;;;21.50;9.70;;;3.80;87.50;;;;;;5029102;28;20215;-69
2020/12/30 07:59:56;;;;;;;14.50;8.20;;;3.90;87.40;;;;;;5029837;28;20209;-68
2020/12/30 08:02:24;;;;;;;17.23;9.63;;;3.90;87.00;;;;;;5029329;28;20946;-69
2020/12/30 08:05:00;;;;;;;18.73;9.97;;;3.90;86.70;;;;;;5027978;28;20197;-69
2020/12/30 08:07:28;;;;;;;21.03;10.30;;;4.00;86.60;;;;;;5029067;28;20751;-68
2020/12/30 08:09:54;;;;;;;19.40;10.40;;;4.00;86.40;;;;;;5029284;28;20441;-69
2020/12/30 08:12:19;;;;;;;16.20;9.10;;;4.10;86.40;;;;;;5027925;28;20473;-70
2020/12/30 08:14:45;;;;;;;24.93;9.90;;;4.10;86.10;;;;;;5028486;28;20221;-69
2020/12/30 08:17:13;;;;;;;16.20;8.97;;;4.10;85.60;;;;;;5028737;28;20178;-67
2020/12/30 08:19:38;;;;;;;15.20;8.77;;;4.10;85.00;;;;;;5027565;28;20543;-69
2020/12/30 08:22:07;;;;;;;20.47;8.93;;;4.20;85.30;;;;;;5028957;28;20978;-70
2020/12/30 08:24:34;;;;;;;14.10;7.53;;;4.30;85.10;;;;;;5023477;28;20225;-68
2020/12/30 08:27:00;;;;;;;14.03;8.83;;;4.30;84.20;;;;;;5028298;28;20444;-68
2020/12/30 08:29:34;;;;;;;19.67;10.37;;;4.40;83.80;;;;;;5028357;28;20447;-68
2020/12/30 08:32:05;;;;;;;14.20;8.30;;;4.40;83.10;;;;;;5028094;28;20428;-69
2020/12/30 08:34:41;;;;;;;20.13;8.87;;;4.40;82.70;;;;;;5032204;28;20417;-68
2020/12/30 08:37:14;;;;;;;16.40;9.07;;;4.40;82.60;;;;;;5032387;28;20825;-68
2020/12/30 08:39:45;;;;;;;16.30;8.00;;;4.50;82.40;;;;;;5033025;28;20405;-68
2020/12/30 08:42:24;;;;;;;16.27;8.70;;;4.50;82.10;;;;;;5032404;28;20436;-68
2020/12/30 08:45:00;;;;;;;12.80;7.00;;;4.60;82.30;;;;;;5032526;28;20419;-68
2020/12/30 08:47:33;;;;;;;15.03;8.10;;;4.70;81.60;;;;;;5029636;28;20424;-69
2020/12/30 08:50:00;;;;;;;12.43;7.73;;;4.70;80.80;;;;;;5030943;28;20547;-69
2020/12/30 08:52:25;;;;;;;15.37;7.90;;;4.70;79.90;;;;;;5032271;28;20425;-69
2020/12/30 08:55:01;;;;;;;10.47;6.43;;;4.70;80.20;;;;;;5032301;28;20436;-69
2020/12/30 08:57:26;;;;;;;11.20;6.80;;;4.80;80.50;;;;;;5031985;28;20170;-68
2020/12/30 08:59:52;;;;;;;12.27;7.07;;;4.80;79.10;;;;;;5031995;28;20417;-69
2020/12/30 09:02:17;;;;;;;10.53;6.20;;;4.80;79.00;;;;;;5032154;28;20214;-70
2020/12/30 09:04:53;;;;;;;10.33;6.53;;;4.80;79.10;;;;;;5031891;28;20194;-69
2020/12/30 09:07:27;;;;;;;11.73;6.73;;;4.80;79.20;;;;;;5031980;28;20174;-70
2020/12/30 09:10:09;;;;;;;11.30;6.83;;;4.80;79.20;;;;;;5032251;28;20547;-69
2020/12/30 09:12:37;;;;;;;15.60;7.70;;;4.90;79.10;;;;;;5032079;28;20456;-68
2020/12/30 09:15:03;;;;;;;13.80;7.67;;;5.00;79.20;;;;;;5031923;28;20411;-69
2020/12/30 09:17:29;;;;;;;16.00;7.93;;;5.10;78.60;;;;;;5032554;28;20797;-69
2020/12/30 09:20:15;;;;;;;10.60;7.87;;;5.10;77.90;;;;;;5032126;28;20463;-69
2020/12/30 09:22:42;;;;;;;11.33;7.50;;;5.10;77.70;;;;;;5032412;28;20238;-69
2020/12/30 09:25:23;;;;;;;10.27;6.27;;;5.10;77.90;;;;;;5030302;28;20420;-69
2020/12/30 09:27:49;;;;;;;12.13;6.80;;;5.00;77.80;;;;;;5031938;28;20425;-70
2020/12/30 09:30:18;;;;;;;13.07;7.50;;;5.00;78.80;;;;;;5031132;28;20856;-70
2020/12/30 09:32:44;;;;;;;11.63;7.20;;;5.10;78.30;;;;;;5032456;28;20186;-69
2020/12/30 09:35:11;;;;;;;12.33;6.10;;;5.00;77.90;;;;;;5030989;28;20431;-70
2020/12/30 09:37:38;;;;;;;12.00;7.27;;;5.10;77.60;;;;;;5032617;28;20807;-69
2020/12/30 09:40:10;;;;;;;10.17;6.30;;;5.10;77.60;;;;;;5030665;28;20485;-70
2020/12/30 09:42:37;;;;;;;12.50;6.70;;;5.10;76.80;;;;;;5032401;28;20467;-70
2020/12/30 09:45:07;;;;;;;13.53;7.70;;;5.10;76.90;;;;;;5027726;28;20452;-71
2020/12/30 09:47:34;;;;;;;11.70;7.00;;;5.20;77.50;;;;;;5032164;28;20517;-70
2020/12/30 09:50:01;;;;;;;10.40;6.63;;;5.30;76.90;;;;;;5031202;28;20463;-70
2020/12/30 09:52:26;;;;;;;17.40;6.93;;;5.40;76.10;;;;;;5030742;28;20825;-69
2020/12/30 09:54:52;;;;;;;12.37;7.00;;;5.50;75.60;;;;;;5032678;28;20516;-72
2020/12/30 09:57:17;;;;;;;10.70;5.50;;;5.50;75.10;;;;;;5032051;28;20493;-71
2020/12/30 09:59:43;;;;;;;11.40;7.53;;;5.50;74.90;;;;;;5032718;28;20187;-70
2020/12/30 10:02:10;;;;;;;11.90;5.80;;;5.50;74.70;;;;;;5032279;28;20195;-69
2020/12/30 10:04:40;;;;;;;10.57;6.07;;;5.60;74.20;;;;;;5032242;28;20182;-70
2020/12/30 10:07:06;;;;;;;10.67;6.63;;;5.60;74.30;;;;;;5031755;28;20405;-70
2020/12/30 10:09:31;;;;;;;10.87;6.10;;;5.70;74.40;;;;;;5031555;28;20459;-70
2020/12/30 10:11:57;;;;;;;13.37;7.20;;;5.60;73.60;;;;;;5031660;28;20182;-69
2020/12/30 10:14:23;;;;;;;10.47;6.70;;;5.60;73.70;;;;;;5031931;28;20173;-71
2020/12/30 10:16:49;;;;;;;9.60;5.77;;;5.60;73.70;;;;;;5032001;28;20173;-70
2020/12/30 10:19:15;;;;;;;12.20;8.13;;;5.60;74.20;;;;;;5031886;28;20766;-70
2020/12/30 10:21:41;;;;;;;13.17;6.00;;;5.60;74.30;;;;;;5031806;28;20535;-70
2020/12/30 10:24:07;;;;;;;11.87;5.97;;;5.60;74.10;;;;;;5031343;28;20455;-70
2020/12/30 10:26:33;;;;;;;10.30;6.03;;;5.60;74.40;;;;;;5031746;28;20920;-70
2020/12/30 10:29:00;;;;;;;9.07;6.13;;;5.60;74.60;;;;;;5013628;28;20492;-68
2020/12/30 10:31:26;;;;;;;11.27;6.73;;;5.50;74.10;;;;;;5030035;28;20532;-70
2020/12/30 10:33:52;;;;;;;9.67;6.07;;;5.60;74.00;;;;;;5031006;28;20478;-70
2020/12/30 10:36:19;;;;;;;11.83;6.67;;;5.60;74.20;;;;;;5030439;28;20409;-70
2020/12/30 10:38:44;;;;;;;15.00;6.97;;;5.60;74.40;;;;;;5030981;28;21008;-70
2020/12/30 10:41:17;;;;;;;9.10;6.73;;;5.70;74.40;;;;;;5030258;28;20569;-70
2020/12/30 10:43:43;;;;;;;12.97;6.33;;;5.70;73.60;;;;;;5029524;28;20186;-70
2020/12/30 10:46:17;;;;;;;12.30;6.40;;;5.80;73.20;;;;;;5029429;28;20428;-69
2020/12/30 10:48:46;;;;;;;11.80;5.50;;;5.90;73.10;;;;;;5031153;28;20496;-69
2020/12/30 10:51:14;;;;;;;7.80;5.97;;;5.90;72.50;;;;;;5030990;28;20503;-70
2020/12/30 10:53:40;;;;;;;10.87;6.60;;;6.00;72.40;;;;;;5030874;28;20479;-70
2020/12/30 10:56:08;;;;;;;11.27;6.03;;;6.10;72.10;;;;;;5030685;28;20409;-70
2020/12/30 10:58:34;;;;;;;23.53;7.73;;;6.10;71.70;;;;;;5030317;28;20429;-70
2020/12/30 11:01:00;;;;;;;9.00;6.20;;;6.20;71.90;;;;;;5030475;28;20508;-70
2020/12/30 11:03:25;;;;;;;11.13;5.87;;;6.30;71.40;;;;;;5029892;28;20330;-71
2020/12/30 11:05:51;;;;;;;7.17;5.47;;;6.40;70.80;;;;;;5030335;28;20170;-70
2020/12/30 11:08:17;;;;;;;10.73;5.80;;;6.40;70.50;;;;;;5029958;28;20162;-69
2020/12/30 11:10:42;;;;;;;7.07;5.20;;;6.50;70.30;;;;;;5030446;28;20618;-70
2020/12/30 11:13:08;;;;;;;9.73;5.27;;;6.50;69.90;;;;;;5029795;28;20299;-70
2020/12/30 11:15:35;;;;;;;11.57;5.40;;;6.60;70.10;;;;;;5028884;28;20515;-70
2020/12/30 11:18:03;;;;;;;7.47;5.83;;;6.60;69.80;;;;;;5030484;28;20179;-70
2020/12/30 11:20:29;;;;;;;9.37;6.10;;;6.70;69.60;;;;;;5030136;28;20572;-69
2020/12/30 11:22:54;;;;;;;9.97;5.67;;;6.70;68.90;;;;;;5029321;28;21012;-70
2020/12/30 11:25:20;;;;;;;8.97;5.60;;;6.80;69.60;;;;;;5029602;28;20176;-71
2020/12/30 11:27:46;;;;;;;13.90;6.07;;;6.70;69.30;;;;;;5029738;28;20501;-70
2020/12/30 11:30:11;;;;;;;12.30;6.57;;;6.60;69.00;;;;;;5029475;28;20205;-69
2020/12/30 11:32:39;;;;;;;17.80;6.73;;;6.60;69.70;;;;;;5028127;28;20265;-70
2020/12/30 11:35:05;;;;;;;11.03;6.10;;;6.50;70.30;;;;;;5029910;28;20178;-71
2020/12/30 11:37:31;;;;;;;11.00;6.10;;;6.50;70.40;;;;;;5029417;28;20440;-71
2020/12/30 11:39:56;;;;;;;9.80;5.80;;;6.40;70.50;;;;;;5011783;28;20911;-69
2020/12/30 11:42:22;;;;;;;9.63;6.40;;;6.40;70.80;;;;;;5028052;28;20194;-70
2020/12/30 11:44:48;;;;;;;12.10;7.23;;;6.40;71.50;;;;;;5029642;28;20188;-69
2020/12/30 11:47:13;;;;;;;8.47;5.87;;;6.50;71.50;;;;;;5028310;28;20225;-70
2020/12/30 11:49:39;;;;;;;11.57;5.53;;;6.50;71.60;;;;;;5028237;28;20195;-70
2020/12/30 11:52:05;;;;;;;12.50;5.70;;;6.60;71.40;;;;;;5029876;28;20242;-70
2020/12/30 11:54:30;;;;;;;9.17;6.50;;;6.70;71.10;;;;;;5011275;28;20163;-70
2020/12/30 11:56:56;;;;;;;13.97;6.20;;;6.80;70.60;;;;;;5029565;28;20270;-71
2020/12/30 11:59:21;;;;;;;24.93;8.83;;;6.90;70.10;;;;;;5030023;28;20547;-70
2020/12/30 12:01:47;;;;;;;11.10;6.43;;;7.00;70.20;;;;;;5029872;28;20169;-70
2020/12/30 12:04:12;;;;;;;11.10;7.20;;;7.00;69.60;;;;;;5028219;28;20181;-71
2020/12/30 12:06:38;;;;;;;10.80;6.23;;;7.00;69.10;;;;;;5026912;28;20170;-69
2020/12/30 12:09:04;;;;;;;9.77;6.40;;;7.00;69.70;;;;;;5029661;28;20162;-69
2020/12/30 12:11:29;;;;;;;14.20;5.73;;;7.00;69.10;;;;;;5027615;28;20634;-70
2020/12/30 12:13:55;;;;;;;14.00;6.93;;;7.00;69.30;;;;;;5027674;28;20557;-69
2020/12/30 12:16:21;;;;;;;9.77;6.57;;;7.00;69.20;;;;;;5029563;28;20572;-70
2020/12/30 12:18:46;;;;;;;10.57;6.07;;;7.00;70.00;;;;;;5027611;28;20181;-70
2020/12/30 12:21:12;;;;;;;17.97;8.20;;;7.10;69.20;;;;;;5029072;28;20182;-70
2020/12/30 12:23:38;;;;;;;10.83;6.50;;;7.10;69.40;;;;;;5029033;28;20210;-69
2020/12/30 12:26:03;;;;;;;15.73;7.10;;;7.10;70.10;;;;;;5029129;28;20211;-70
2020/12/30 12:28:44;;;;;;;20.20;8.00;;;7.00;69.70;;;;;;5032866;28;20175;-70
2020/12/30 12:31:16;;;;;;;20.20;7.13;;;7.10;70.10;;;;;;5029053;28;20555;-70
2020/12/30 12:33:42;;;;;;;11.23;6.47;;;7.10;69.70;;;;;;5028929;28;20449;-71
2020/12/30 12:36:12;;;;;;;12.50;7.20;;;7.10;69.40;;;;;;5027482;28;20470;-70
2020/12/30 12:38:37;;;;;;;13.27;7.47;;;7.10;69.80;;;;;;5028909;28;20260;-70
2020/12/30 12:41:03;;;;;;;15.60;7.03;;;7.10;68.50;;;;;;5027713;28;20424;-70
2020/12/30 12:43:29;;;;;;;14.90;7.80;;;6.90;68.90;;;;;;5028866;28;20186;-70
2020/12/30 12:45:54;;;;;;;10.33;6.70;;;6.80;69.80;;;;;;5029149;28;20431;-69
2020/12/30 12:48:20;;;;;;;11.20;5.53;;;6.70;69.50;;;;;;5027608;28;20166;-70
2020/12/30 12:50:46;;;;;;;14.27;7.87;;;6.60;70.20;;;;;;5028826;28;20194;-70
2020/12/30 12:53:11;;;;;;;13.50;6.17;;;6.60;70.90;;;;;;5028097;28;20183;-71
2020/12/30 12:55:37;;;;;;;13.27;6.43;;;6.50;71.20;;;;;;5028974;28;20238;-71
2020/12/30 12:58:03;;;;;;;11.50;6.53;;;6.50;71.70;;;;;;5027583;28;20183;-72
2020/12/30 13:00:29;;;;;;;12.47;7.03;;;6.50;71.50;;;;;;5029152;28;20205;-70
2020/12/30 13:02:54;;;;;;;12.00;7.17;;;6.50;71.80;;;;;;5028154;28;20264;-70
2020/12/30 13:05:20;;;;;;;10.23;7.20;;;6.50;71.80;;;;;;5028799;28;20182;-70
2020/12/30 13:07:45;;;;;;;10.70;6.63;;;6.50;72.30;;;;;;5028490;28;20559;-70
2020/12/30 13:10:11;;;;;;;12.67;7.40;;;6.50;72.80;;;;;;5028939;28;20363;-71
2020/12/30 13:12:37;;;;;;;15.90;11.50;;;6.50;74.30;;;;;;5027368;28;20285;-70
2020/12/30 13:15:03;;;;;;;13.77;7.77;;;6.40;75.30;;;;;;5029227;28;20186;-71